KHSP/HSP METAR and TAF weather

Enter ICAO airport designator
Station Type Date Time Source
KHSP METAR 2021/05/11 22:55 UTC NOAA

KHSP 112255Z AUTO 29007G17KT 10SM BKN050 12/M01 A3014 RMK AO2 T01231006


Station Type Date Time Source
KHSP Decoded METAR 2021/05/11 22:55 UTC NOAA

Hot Springs / Ingalls, VA, United States (KHSP) 37-57N 079-50W
May 11, 2021 - 06:55 PM EDT / 2021.05.11 2255 UTC
Wind: from the WNW (290 degrees) at 8 MPH (7 KT) gusting to 20 MPH (17 KT):0
Visibility: 10 mile(s):0
Sky conditions: mostly cloudy
Temperature: 54.1 F (12.3 C)
Dew Point: 30.9 F (-0.6 C)
Relative Humidity: 40%
Pressure (altimeter): 30.14 in. Hg (1020 hPa)
ob: KHSP 112255Z AUTO 29007G17KT 10SM BKN050 12/M01 A3014 RMK AO2 T01231006
cycle: 23

Station Type Date Time Source
KHSP TAF UTC NOAA

Error!

Example: see airport list